Time;durP1;ratioP1;P1;durP2;ratioP2;P2;SDS_P1;SDS_P2;PMS_P1;PMS_P2;Temp;Humidity;BMP_temperature;BMP_pressure;BME280_temperature;BME280_humidity;BME280_pressure;Samples;Min_cycle;Max_cycle;Signal;HPM_P1;HPM_P2
2022/10/16 00:00:54;;;;;;;9.68;7.10;;;;;;;12.27;89.34;101050.16;4899338;28;20350;-59
2022/10/16 00:03:28;;;;;;;10.85;7.32;;;;;;;12.29;89.04;101043.16;4882572;28;20097;-59
2022/10/16 00:06:10;;;;;;;12.40;8.35;;;;;;;12.31;88.80;101041.41;4889004;28;20094;-59
2022/10/16 00:08:56;;;;;;;11.10;8.02;;;;;;;12.33;88.61;101029.16;4920696;28;20121;-59
2022/10/16 00:11:36;;;;;;;12.43;8.75;;;;;;;12.32;88.88;101037.88;4911374;28;20044;-59
2022/10/16 00:14:23;;;;;;;12.70;9.88;;;;;;;12.35;89.53;101032.59;4909162;28;20320;-59
2022/10/16 00:20:03;;;;;;;18.25;9.65;;;;;;;12.04;89.49;101021.59;4923388;28;20109;-59
2022/10/16 00:22:46;;;;;;;15.98;11.73;;;;;;;11.98;90.41;101009.44;4851359;28;20037;-59
2022/10/16 00:25:29;;;;;;;16.10;11.00;;;;;;;11.91;90.66;101005.16;4880569;28;20048;-59
2022/10/16 00:28:08;;;;;;;15.15;11.48;;;;;;;11.92;91.19;100996.41;4899343;28;20058;-60
2022/10/16 00:30:45;;;;;;;16.45;12.13;;;;;;;12.00;91.71;100993.69;4923311;28;20552;-60
2022/10/16 00:33:34;;;;;;;18.95;13.23;;;;;;;11.98;91.96;100980.63;4922893;28;20059;-59
2022/10/16 00:36:27;;;;;;;19.35;13.40;;;;;;;12.11;91.99;100985.75;4920146;28;20301;-59
2022/10/16 00:39:10;;;;;;;21.13;14.23;;;;;;;11.97;91.75;100978.88;4902182;28;20506;-59
2022/10/16 00:42:01;;;;;;;27.70;19.75;;;;;;;11.96;92.06;100987.63;4907816;28;20048;-60
2022/10/16 00:44:53;;;;;;;23.67;15.90;;;;;;;11.81;91.86;100983.38;4935070;28;20044;-59
2022/10/16 00:47:41;;;;;;;32.50;20.63;;;;;;;11.76;92.23;100973.84;4910721;28;20040;-59
2022/10/16 00:50:32;;;;;;;26.52;15.95;;;;;;;11.64;92.43;100978.31;4906566;28;20053;-60
2022/10/16 00:53:20;;;;;;;29.33;17.40;;;;;;;11.65;93.36;100977.41;4938171;28;20053;-59
2022/10/16 00:56:03;;;;;;;32.85;18.80;;;;;;;11.60;93.45;100981.81;4844747;28;20048;-58
2022/10/16 00:58:53;;;;;;;25.00;16.50;;;;;;;11.25;93.54;100942.03;4933189;28;20048;-59
2022/10/16 01:01:41;;;;;;;32.20;18.45;;;;;;;11.36;93.99;100968.97;4900632;28;20048;-59
2022/10/16 01:04:31;;;;;;;38.03;21.70;;;;;;;11.25;94.61;100970.78;4914742;28;20037;-59
2022/10/16 01:07:11;;;;;;;35.20;20.67;;;;;;;11.19;95.45;100972.56;4953293;28;20044;-59
2022/10/16 01:10:23;;;;;;;32.20;20.67;;;;;;;11.27;96.23;100961.19;4916481;28;20426;-59
2022/10/16 01:13:13;;;;;;;37.78;21.35;;;;;;;11.29;96.42;100946.34;4926910;28;20062;-58
2022/10/16 01:16:13;;;;;;;36.78;20.67;;;;;;;11.36;96.94;100942.81;4924612;28;20040;-59
2022/10/16 01:24:57;;;;;;;33.78;18.38;;;;;;;11.51;96.39;100937.44;4937160;28;20052;-59
2022/10/16 01:27:50;;;;;;;31.77;18.20;;;;;;;11.44;95.92;100939.22;4927945;28;20112;-59
2022/10/16 01:30:29;;;;;;;28.38;17.15;;;;;;;11.28;96.00;100919.31;4928826;28;20060;-59
2022/10/16 01:33:17;;;;;;;30.63;18.02;;;;;;;11.33;96.02;100937.56;4845846;28;20050;-59
2022/10/16 01:36:02;;;;;;;31.33;19.98;;;;;;;11.30;96.34;100932.38;4899125;28;20176;-59
2022/10/16 01:38:41;;;;;;;30.60;18.48;;;;;;;11.20;96.38;100937.69;4909117;28;20049;-59
2022/10/16 01:41:35;;;;;;;38.80;22.48;;;;;;;11.08;96.94;100927.31;4918085;28;20062;-59
2022/10/16 01:44:20;;;;;;;;;;;;;;;11.09;97.33;100931.69;4912269;28;20048;-59
2022/10/16 01:47:03;;;;;;;46.25;29.23;;;;;;;10.83;97.95;100900.47;4922154;28;19950;-59
2022/10/16 01:49:47;;;;;;;50.85;24.25;;;;;;;11.04;98.47;100941.31;4903504;28;20045;-59
2022/10/16 01:52:40;;;;;;;44.67;24.38;;;;;;;11.04;98.81;100941.31;4879919;28;20048;-59
2022/10/16 01:55:34;;;;;;;37.58;22.85;;;;;;;11.07;99.02;100936.06;4918357;28;20048;-58
2022/10/16 01:58:21;;;;;;;34.05;18.75;;;;;;;11.07;99.08;100932.56;4903899;28;20060;-58
2022/10/16 02:01:00;;;;;;;40.22;19.90;;;;;;;10.99;99.30;100933.50;4940081;28;20057;-59
2022/10/16 02:06:35;;;;;;;33.08;19.73;;;;;;;10.90;99.74;100914.38;4929355;28;20138;-59
2022/10/16 02:09:15;;;;;;;35.97;21.35;;;;;;;10.61;99.73;100857.09;4915034;28;20059;-59
2022/10/16 02:12:05;;;;;;;;;;;;;;;;;;;;;
2022/10/16 02:14:52;;;;;;;35.90;23.15;;;;;;;10.94;100.00;100897.81;4869436;28;20183;-60
2022/10/16 02:17:39;;;;;;;35.03;20.65;;;;;;;11.02;100.00;100885.53;4880578;28;20071;-59
2022/10/16 02:20:29;;;;;;;28.42;18.30;;;;;;;11.04;100.00;100882.91;4870098;28;20049;-60
2022/10/16 02:23:12;;;;;;;21.88;16.50;;;;;;;11.03;99.87;100884.63;4947178;28;20068;-60
2022/10/16 02:26:02;;;;;;;21.85;14.43;;;;;;;10.93;99.71;100872.53;4879659;28;20057;-60
2022/10/16 02:28:44;;;;;;;19.40;13.18;;;;;;;10.98;99.29;100878.59;4917792;28;20058;-59
2022/10/16 02:31:33;;;;;;;19.48;13.23;;;;;;;10.98;99.37;100883.81;4936813;28;20037;-59
2022/10/16 02:34:25;;;;;;;18.95;12.65;;;;;;;11.02;98.83;100886.41;4916651;28;20066;-60
2022/10/16 02:37:05;;;;;;;17.67;12.27;;;;;;;10.96;98.66;100859.44;4927818;28;20052;-59
2022/10/16 02:39:51;;;;;;;19.17;12.00;;;;;;;10.95;98.63;100873.38;4912905;28;20040;-59
2022/10/16 02:42:40;;;;;;;20.75;12.93;;;;;;;10.95;99.05;100857.69;4938642;28;20043;-59
2022/10/16 02:45:18;;;;;;;18.70;11.73;;;;;;;11.08;98.81;100848.00;4930929;28;20140;-60
2022/10/16 02:48:05;;;;;;;22.38;15.82;;;;;;;11.07;98.99;100852.38;4929704;28;20388;-59
2022/10/16 02:53:59;;;;;;;26.75;13.40;;;;;;;11.13;98.06;100812.19;4946994;28;20059;-60
2022/10/16 02:56:45;;;;;;;20.50;14.07;;;;;;;11.15;98.32;100808.69;4924784;28;20131;-59
2022/10/16 02:59:30;;;;;;;25.05;16.88;;;;;;;11.19;98.17;100815.63;4909256;28;20453;-59
2022/10/16 03:02:19;;;;;;;27.75;16.52;;;;;;;11.34;98.18;100813.75;4910963;28;20094;-59
2022/10/16 03:05:00;;;;;;;24.50;15.88;;;;;;;11.50;98.24;100809.19;4857399;28;20581;-59
2022/10/16 03:07:58;;;;;;;28.17;17.25;;;;;;;11.64;97.38;100796.81;4903024;28;20048;-59
2022/10/16 03:10:44;;;;;;;28.25;17.27;;;;;;;11.71;96.73;100784.53;4915530;28;20485;-59
2022/10/16 03:13:32;;;;;;;28.25;16.83;;;;;;;11.84;96.57;100786.09;4905966;28;20053;-59
2022/10/16 03:16:15;;;;;;;25.15;15.45;;;;;;;11.98;95.49;100776.34;4905322;28;20063;-59
2022/10/16 03:19:08;;;;;;;21.42;13.75;;;;;;;12.08;94.81;100787.53;4868970;28;20053;-58
2022/10/16 03:21:46;;;;;;;19.67;12.30;;;;;;;12.19;93.91;100775.16;4893068;28;20048;-59
2022/10/16 03:24:30;;;;;;;23.77;12.15;;;;;;;12.18;93.22;100770.81;4912595;28;20044;-59
2022/10/16 03:27:18;;;;;;;17.98;12.85;;;;;;;12.17;92.39;100760.34;4898456;28;20051;-59
2022/10/16 03:33:20;;;;;;;15.13;10.70;;;;;;;11.87;93.31;100770.38;4847173;28;21919;-59
2022/10/16 03:36:08;;;;;;;14.60;11.05;;;;;;;11.71;93.52;100766.22;4904772;28;20053;-58
2022/10/16 03:39:10;;;;;;;17.17;11.63;;;;;;;11.58;94.15;100761.13;4887745;28;20284;-59
2022/10/16 03:41:55;;;;;;;20.90;11.13;;;;;;;11.38;94.97;100757.88;4914091;28;20115;-58
2022/10/16 03:44:34;;;;;;;16.90;11.88;;;;;;;11.25;96.01;100751.06;4825338;28;20419;-59
2022/10/16 03:47:14;;;;;;;13.73;10.73;;;;;;;11.14;96.66;100749.44;4928103;28;20052;-59
2022/10/16 03:50:03;;;;;;;18.17;11.23;;;;;;;11.12;97.70;100745.97;4928491;28;20522;-59
2022/10/16 03:52:47;;;;;;;22.08;12.13;;;;;;;11.12;98.13;100740.72;4914035;28;21300;-58
2022/10/16 03:55:43;;;;;;;21.05;12.52;;;;;;;11.07;98.63;100739.06;4886207;28;20108;-59
2022/10/16 03:58:54;;;;;;;20.42;11.48;;;;;;;11.04;98.97;100736.47;4924684;28;20040;-60
2022/10/16 04:01:39;;;;;;;23.60;11.60;;;;;;;10.88;99.40;100714.84;4922812;28;20094;-59
2022/10/16 04:04:18;;;;;;;21.92;12.18;;;;;;;10.98;99.66;100732.16;4929954;28;20048;-59
2022/10/16 04:06:55;;;;;;;18.35;12.23;;;;;;;10.97;100.00;100735.66;4937545;28;20054;-60
2022/10/16 04:09:39;;;;;;;18.90;12.25;;;;;;;10.94;100.00;100725.25;4911284;28;20399;-58
2022/10/16 04:12:17;;;;;;;27.73;13.10;;;;;;;10.91;100.00;100727.91;4911820;28;20063;-59
2022/10/16 04:15:03;;;;;;;27.50;13.63;;;;;;;10.87;100.00;100724.44;4934174;28;20067;-59
2022/10/16 04:18:11;;;;;;;26.77;15.35;;;;;;;10.85;100.00;100709.66;4912372;28;20089;-59
2022/10/16 04:21:07;;;;;;;23.83;14.40;;;;;;;10.97;100.00;100719.97;4929405;28;20075;-59
2022/10/16 04:24:06;;;;;;;22.80;15.07;;;;;;;10.98;100.00;100698.16;4912378;28;20049;-59
2022/10/16 04:26:52;;;;;;;22.33;15.55;;;;;;;11.01;100.00;100700.75;4923533;28;20042;-59
2022/10/16 04:29:46;;;;;;;22.80;13.65;;;;;;;11.08;100.00;100706.78;4911881;28;20068;-60
2022/10/16 04:32:34;;;;;;;22.33;15.00;;;;;;;11.05;100.00;100712.91;4928192;28;20049;-59
2022/10/16 04:35:14;;;;;;;26.73;14.50;;;;;;;11.03;100.00;100712.03;4925499;28;20056;-58
2022/10/16 04:38:01;;;;;;;25.13;14.73;;;;;;;11.02;100.00;100712.94;4905316;28;20059;-59
2022/10/16 04:40:54;;;;;;;28.48;15.90;;;;;;;11.03;100.00;100709.44;4958269;28;20053;-59
2022/10/16 04:43:43;;;;;;;27.10;14.25;;;;;;;10.93;100.00;100707.81;4921157;28;20291;-59
2022/10/16 04:46:21;;;;;;;29.98;16.88;;;;;;;10.85;100.00;100710.50;4917439;28;20604;-59
2022/10/16 04:49:04;;;;;;;25.00;16.02;;;;;;;10.92;100.00;100717.41;4914565;28;20152;-58
2022/10/16 04:54:34;;;;;;;34.33;17.55;;;;;;;10.90;100.00;100713.06;4946029;28;20371;-59
2022/10/16 04:57:31;;;;;;;39.80;23.48;;;;;;;10.84;100.00;100702.69;4948184;28;20052;-59
2022/10/16 05:00:26;;;;;;;52.50;33.78;;;;;;;10.37;100.00;100629.09;4918103;28;20236;-59
2022/10/16 05:03:17;;;;;;;43.30;26.25;;;;;;;10.83;100.00;100695.72;4931344;28;20111;-58
2022/10/16 05:06:08;;;;;;;34.08;19.10;;;;;;;10.85;100.00;100699.19;4945899;28;20444;-59
2022/10/16 05:09:08;;;;;;;29.42;19.58;;;;;;;10.91;100.00;100699.13;4955989;28;20082;-59
2022/10/16 05:14:30;;;;;;;26.30;18.15;;;;;;;10.96;100.00;100694.72;4881913;28;20043;-59
2022/10/16 05:17:06;;;;;;;27.23;18.25;;;;;;;10.98;100.00;100687.69;4965311;28;20123;-59
2022/10/16 05:19:51;;;;;;;30.52;15.32;;;;;;;11.01;100.00;100674.63;4925726;28;20074;-58
2022/10/16 05:22:39;;;;;;;27.13;15.55;;;;;;;11.04;100.00;100674.56;4920577;28;20070;-59
2022/10/16 05:25:36;;;;;;;21.63;14.48;;;;;;;11.03;100.00;100672.81;4935820;28;20047;-59
2022/10/16 05:28:13;;;;;;;19.80;13.25;;;;;;;11.03;100.00;100672.81;4910269;28;20060;-58
2022/10/16 05:30:53;;;;;;;26.08;13.05;;;;;;;11.04;100.00;100664.13;4893214;28;20051;-58
2022/10/16 05:33:51;;;;;;;19.77;12.50;;;;;;;11.06;100.00;100664.97;4959694;28;20097;-58
2022/10/16 05:36:45;;;;;;;26.15;16.45;;;;;;;11.07;100.00;100669.31;4908278;28;20232;-59
2022/10/16 05:39:21;;;;;;;24.55;13.45;;;;;;;11.01;100.00;100653.69;4937023;28;20044;-59
2022/10/16 05:42:14;;;;;;;16.92;11.40;;;;;;;11.09;100.00;100667.53;4942674;28;20067;-60
2022/10/16 05:44:55;;;;;;;26.55;16.02;;;;;;;11.09;100.00;100662.31;4944026;28;20096;-59
2022/10/16 05:47:51;;;;;;;16.45;10.63;;;;;;;11.11;100.00;100665.78;4911265;28;20071;-59
2022/10/16 05:53:41;;;;;;;19.88;10.55;;;;;;;11.09;100.00;100667.53;4938781;28;20052;-58
2022/10/16 05:56:26;;;;;;;16.70;10.85;;;;;;;11.14;100.00;100664.88;4887624;28;20137;-58
2022/10/16 05:59:15;;;;;;;17.00;11.07;;;;;;;11.11;100.00;100654.47;4951511;28;20092;-59
2022/10/16 06:01:57;;;;;;;15.27;10.18;;;;;;;11.13;100.00;100664.00;4930595;28;20147;-59
2022/10/16 06:04:51;;;;;;;17.15;10.80;;;;;;;11.14;100.00;100655.28;4930191;28;20120;-59
2022/10/16 06:10:39;;;;;;;;;;;;;;;11.16;100.00;100650.88;4936947;28;20367;-59
2022/10/16 06:13:17;;;;;;;12.35;9.30;;;;;;;11.13;100.00;100632.63;4949097;28;19978;-58
2022/10/16 06:16:02;;;;;;;17.00;10.43;;;;;;;11.19;100.00;100627.31;4930769;28;20089;-59
2022/10/16 06:18:53;;;;;;;13.02;8.80;;;;;;;10.95;100.00;100581.41;4927987;28;20048;-58
2022/10/16 06:21:47;;;;;;;15.82;9.75;;;;;;;11.18;100.00;100628.19;4946694;28;20081;-59
2022/10/16 06:24:36;;;;;;;15.88;8.85;;;;;;;11.07;100.00;100601.31;4934550;28;20047;-59
2022/10/16 06:27:23;;;;;;;14.02;10.13;;;;;;;11.21;100.00;100620.31;4941639;28;20036;-59
2022/10/16 06:30:03;;;;;;;16.35;13.90;;;;;;;11.18;100.00;100615.13;4927061;28;20107;-59
2022/10/16 06:32:51;;;;;;;17.00;14.15;;;;;;;11.14;100.00;100616.03;4927922;28;20057;-58
2022/10/16 06:35:51;;;;;;;14.50;8.93;;;;;;;11.18;100.00;100609.91;4882850;28;20041;-58
2022/10/16 06:41:30;;;;;;;11.82;8.52;;;;;;;10.96;100.00;100561.38;4905221;28;20241;-58
2022/10/16 06:44:34;;;;;;;11.90;8.65;;;;;;;11.25;100.00;100599.34;4917119;28;20469;-58
2022/10/16 06:47:14;;;;;;;15.30;9.48;;;;;;;11.05;100.00;100570.84;4839832;28;20041;-59
2022/10/16 06:49:59;;;;;;;14.27;9.98;;;;;;;11.23;100.00;100597.63;4908641;28;20071;-59
2022/10/16 06:52:50;;;;;;;13.98;10.30;;;;;;;11.28;100.00;100601.91;4896373;28;20052;-58
2022/10/16 06:55:26;;;;;;;18.27;12.40;;;;;;;11.21;100.00;100583.69;4910362;28;20033;-58
2022/10/16 06:58:11;;;;;;;21.15;12.73;;;;;;;11.25;100.00;100596.72;4916243;28;20040;-57
2022/10/16 07:01:04;;;;;;;19.75;13.82;;;;;;;11.20;100.00;100591.53;4873777;28;20109;-59
2022/10/16 07:03:42;;;;;;;60.25;40.85;;;;;;;11.19;100.00;100590.69;4910665;28;20056;-60
2022/10/16 07:06:53;;;;;;;24.17;16.40;;;;;;;11.18;100.00;100588.97;4929374;28;20106;-59
2022/10/16 07:12:29;;;;;;;29.05;15.90;;;;;;;11.17;100.00;100578.50;4924556;28;20058;-59
2022/10/16 07:15:45;;;;;;;24.17;15.50;;;;;;;11.17;100.00;100570.66;4916932;28;20037;-58
2022/10/16 07:18:19;;;;;;;24.30;16.58;;;;;;;11.15;100.00;100573.28;4850714;28;20045;-59
2022/10/16 07:21:28;;;;;;;26.30;15.98;;;;;;;11.12;100.00;100562.88;4902662;28;20075;-59
2022/10/16 07:24:32;;;;;;;25.30;16.77;;;;;;;11.11;100.00;100566.41;4847192;28;20484;-60
2022/10/16 07:27:24;;;;;;;22.17;14.40;;;;;;;11.08;100.00;100555.09;4904465;28;20061;-59
2022/10/16 07:30:02;;;;;;;30.85;15.75;;;;;;;11.06;100.00;100562.97;4874903;28;20048;-58
2022/10/16 07:32:48;;;;;;;20.40;13.73;;;;;;;11.00;100.00;100547.34;4936000;28;20066;-60
2022/10/16 07:35:35;;;;;;;24.42;14.13;;;;;;;11.05;100.00;100545.53;4957336;28;20035;-59
2022/10/16 07:38:14;;;;;;;30.45;20.35;;;;;;;11.05;100.00;100550.78;4914342;28;20246;-59
2022/10/16 07:40:52;;;;;;;29.50;16.40;;;;;;;11.06;100.00;100556.84;4903714;28;20377;-59
2022/10/16 07:43:34;;;;;;;27.88;16.35;;;;;;;10.76;100.00;100507.59;4914404;28;20055;-58
2022/10/16 07:46:18;;;;;;;21.92;15.00;;;;;;;11.06;100.00;100552.53;4916152;28;20056;-59
2022/10/16 07:48:56;;;;;;;21.50;13.98;;;;;;;10.96;100.00;100545.69;4922733;28;20060;-59
2022/10/16 07:51:35;;;;;;;18.50;12.63;;;;;;;11.09;100.00;100552.47;4927321;28;20221;-59
2022/10/16 07:54:16;;;;;;;21.77;13.57;;;;;;;11.08;100.00;100558.56;4927741;28;20058;-58
2022/10/16 07:57:06;;;;;;;24.25;13.95;;;;;;;11.07;100.00;100559.47;4898679;28;20257;-59
2022/10/16 07:59:46;;;;;;;27.25;15.90;;;;;;;11.05;100.00;100566.47;4916318;28;20045;-59
2022/10/16 08:02:45;;;;;;;30.60;16.67;;;;;;;11.02;100.00;100562.13;4900336;28;20045;-59
2022/10/16 08:05:26;;;;;;;35.80;16.85;;;;;;;10.47;100.00;100457.47;4900272;28;20118;-60
2022/10/16 08:08:08;;;;;;;26.30;15.35;;;;;;;10.98;100.00;100549.13;4919342;28;20064;-59
2022/10/16 08:10:55;;;;;;;19.45;12.15;;;;;;;10.96;100.00;100550.91;4889152;28;20056;-58
2022/10/16 08:13:51;;;;;;;23.10;13.48;;;;;;;10.95;100.00;100536.09;4885669;28;20049;-58
2022/10/16 08:16:34;;;;;;;23.30;13.02;;;;;;;10.94;100.00;100531.78;4918829;28;20063;-59
2022/10/16 08:19:11;;;;;;;21.23;12.57;;;;;;;10.92;100.00;100517.84;4929369;28;20049;-59
2022/10/16 08:21:56;;;;;;;22.55;13.40;;;;;;;10.96;100.00;100530.00;4927312;28;20040;-59
2022/10/16 08:24:41;;;;;;;22.85;13.63;;;;;;;10.98;100.00;100522.97;4899217;28;20050;-59
2022/10/16 08:27:23;;;;;;;27.23;14.35;;;;;;;10.99;100.00;100529.94;4866268;28;20276;-59
2022/10/16 08:30:04;;;;;;;29.60;14.57;;;;;;;10.99;100.00;100529.94;4898752;28;20105;-60
2022/10/16 08:32:38;;;;;;;31.73;15.02;;;;;;;10.98;100.00;100533.44;4876345;28;20053;-59
2022/10/16 08:41:35;;;;;;;33.13;15.02;;;;;;;10.93;100.00;100533.53;4907978;28;20096;-58
2022/10/16 08:45:04;;;;;;;44.38;17.42;;;;;;;10.96;100.00;100530.00;4887427;28;20128;-58
2022/10/16 08:47:57;;;;;;;38.10;14.18;;;;;;;10.95;100.00;100533.47;4925907;28;20040;-58
2022/10/16 08:50:45;;;;;;;27.63;15.20;;;;;;;10.83;100.00;100518.81;4927633;28;20106;-58
2022/10/16 08:53:41;;;;;;;31.98;15.48;;;;;;;10.93;100.00;100524.78;4927462;28;20289;-58
2022/10/16 08:56:23;;;;;;;32.55;16.13;;;;;;;10.91;100.00;100526.59;4866763;28;20625;-58
2022/10/16 08:59:25;;;;;;;26.88;15.32;;;;;;;10.88;100.00;100514.38;4847936;28;20075;-58
2022/10/16 09:02:04;;;;;;;25.42;13.82;;;;;;;10.93;100.00;100509.09;4904096;28;20044;-58
2022/10/16 09:05:07;;;;;;;38.25;16.52;;;;;;;10.94;100.00;100505.63;4874349;28;20071;-58
2022/10/16 09:08:11;;;;;;;25.52;14.63;;;;;;;10.93;100.00;100510.00;4913426;28;20053;-59
2022/10/16 09:14:08;;;;;;;33.20;13.85;;;;;;;10.87;100.00;100519.66;4844477;28;20062;-59
2022/10/16 09:17:07;;;;;;;42.28;13.88;;;;;;;10.93;100.00;100519.56;4777655;28;20043;-60
2022/10/16 09:19:51;;;;;;;38.70;14.60;;;;;;;10.88;100.00;100510.91;4834549;28;20057;-59
2022/10/16 09:22:32;;;;;;;33.17;14.25;;;;;;;10.87;100.00;100506.59;4782088;28;20119;-58
2022/10/16 09:25:18;;;;;;;34.13;15.10;;;;;;;10.89;100.00;100508.28;4845700;28;20372;-59
2022/10/16 09:28:06;;;;;;;42.45;16.00;;;;;;;10.90;100.00;100503.91;4804685;28;20113;-59
2022/10/16 09:30:54;;;;;;;27.63;14.82;;;;;;;10.87;100.00;100498.75;4800130;28;20046;-59
2022/10/16 09:33:42;;;;;;;60.17;16.67;;;;;;;10.69;100.00;100464.13;4838934;28;20137;-58
2022/10/16 09:36:42;;;;;;;57.40;17.33;;;;;;;10.93;100.00;100493.41;4858481;28;20050;-61
2022/10/16 09:39:32;;;;;;;58.22;17.08;;;;;;;10.92;100.00;100507.38;4805257;28;20063;-59
2022/10/16 09:42:08;;;;;;;85.32;18.42;;;;;;;10.90;100.00;100494.31;4822621;28;20040;-60
2022/10/16 09:45:00;;;;;;;80.47;18.23;;;;;;;10.92;100.00;100502.16;4836792;28;20338;-60
2022/10/16 09:47:52;;;;;;;131.07;21.08;;;;;;;10.87;100.00;100488.28;4860833;28;20599;-59
2022/10/16 09:50:31;;;;;;;155.20;24.17;;;;;;;10.86;100.00;100486.53;4887287;28;20054;-59
2022/10/16 09:53:26;;;;;;;100.28;24.15;;;;;;;10.91;100.00;100489.97;4902221;28;20047;-58
2022/10/16 09:56:18;;;;;;;112.03;24.17;;;;;;;10.90;100.00;100493.47;4920126;28;20043;-59
2022/10/16 09:59:16;;;;;;;87.43;27.33;;;;;;;10.88;100.00;100482.16;4911318;28;20107;-59
2022/10/16 10:02:09;;;;;;;107.10;28.63;;;;;;;10.90;100.00;100483.00;4977219;28;20101;-58
2022/10/16 10:04:58;;;;;;;127.43;25.85;;;;;;;10.89;100.00;100471.69;4873659;28;20053;-59
2022/10/16 10:07:50;;;;;;;109.25;20.63;;;;;;;10.87;100.00;100455.16;4959933;28;20201;-59
2022/10/16 10:10:54;;;;;;;113.32;19.15;;;;;;;10.73;100.00;100413.56;4946140;28;20056;-58
2022/10/16 10:13:37;;;;;;;57.40;17.02;;;;;;;10.83;100.00;100436.94;4924962;28;20068;-59
2022/10/16 10:16:26;;;;;;;72.95;18.50;;;;;;;10.85;100.00;100427.31;4924006;28;20472;-59
2022/10/16 10:19:07;;;;;;;56.95;18.98;;;;;;;10.87;100.00;100430.78;4945192;28;20044;-59
2022/10/16 10:21:59;;;;;;;70.03;22.13;;;;;;;10.87;100.00;100436.00;4908015;28;20058;-59
2022/10/16 10:27:49;;;;;;;61.97;21.95;;;;;;;10.91;100.00;100424.63;4935183;28;20048;-59
2022/10/16 10:30:29;;;;;;;53.83;17.48;;;;;;;10.89;100.00;100416.78;4916237;28;20067;-59
2022/10/16 10:33:21;;;;;;;78.07;19.40;;;;;;;10.89;100.00;100410.72;4923031;28;20302;-59
2022/10/16 10:36:23;;;;;;;64.10;19.83;;;;;;;10.61;100.00;100371.91;4963710;28;20061;-59
2022/10/16 10:39:22;;;;;;;47.78;19.17;;;;;;;10.71;100.00;100394.41;4923222;28;20047;-60
2022/10/16 10:42:43;;;;;;;60.20;19.48;;;;;;;10.88;100.00;100403.72;4903301;28;20056;-58
2022/10/16 10:45:33;;;;;;;44.30;19.70;;;;;;;10.90;100.00;100394.13;4939529;28;20071;-59
2022/10/16 10:48:51;;;;;;;59.97;20.17;;;;;;;10.92;100.00;100400.19;4951149;28;20040;-59
2022/10/16 10:52:16;;;;;;;45.90;21.52;;;;;;;10.66;100.00;100348.31;4917644;28;20053;-59
2022/10/16 10:55:05;;;;;;;82.07;28.50;;;;;;;10.68;100.00;100342.16;4916966;28;20040;-59
2022/10/16 10:58:26;;;;;;;34.40;19.88;;;;;;;10.91;100.00;100373.19;4901727;28;20053;-59
2022/10/16 11:01:19;;;;;;;33.25;19.27;;;;;;;10.92;100.00;100351.38;4920636;28;20518;-58
2022/10/16 11:04:37;;;;;;;38.58;20.30;;;;;;;10.91;100.00;100340.97;4937659;28;20281;-59
2022/10/16 11:07:29;;;;;;;37.25;20.13;;;;;;;10.91;100.00;100343.59;4923624;28;20092;-60
2022/10/16 11:10:15;;;;;;;34.28;19.42;;;;;;;10.89;100.00;100338.38;4879259;28;20048;-58
2022/10/16 11:12:54;;;;;;;32.53;19.88;;;;;;;10.94;100.00;100330.47;4909921;28;20044;-58
2022/10/16 11:15:52;;;;;;;38.60;19.48;;;;;;;10.92;100.00;100314.78;4919728;28;20355;-58
2022/10/16 11:18:44;;;;;;;31.92;18.13;;;;;;;10.68;100.00;100289.91;4871253;28;20046;-58
2022/10/16 11:21:38;;;;;;;44.33;21.75;;;;;;;10.92;100.00;100314.78;4894064;28;20080;-59
2022/10/16 11:24:24;;;;;;;39.90;21.98;;;;;;;10.96;100.00;100305.16;4927106;28;20054;-59
2022/10/16 11:27:18;;;;;;;32.40;19.92;;;;;;;10.74;100.00;100263.69;4948483;28;20050;-59
2022/10/16 11:30:04;;;;;;;34.80;19.33;;;;;;;10.93;100.00;100294.72;4914394;28;20044;-58
2022/10/16 11:32:56;;;;;;;31.30;19.73;;;;;;;10.98;100.00;100303.34;4938097;28;20120;-59
2022/10/16 11:35:48;;;;;;;37.50;20.33;;;;;;;10.97;100.00;100299.03;4929974;28;20090;-59
2022/10/16 11:38:42;;;;;;;35.90;20.20;;;;;;;10.88;100.00;100273.03;4898737;28;20308;-59
2022/10/16 11:41:36;;;;;;;42.38;20.80;;;;;;;10.95;100.00;100279.88;4807428;28;20052;-60
2022/10/16 11:44:35;;;;;;;29.73;18.90;;;;;;;10.96;100.00;100284.25;4892831;28;20052;-57
2022/10/16 11:47:25;;;;;;;36.60;19.55;;;;;;;10.89;100.00;100266.94;4929293;28;20354;-58
2022/10/16 11:50:58;;;;;;;33.67;19.38;;;;;;;10.77;100.00;100240.09;4907859;28;20056;-57
2022/10/16 11:53:53;;;;;;;33.15;18.85;;;;;;;11.01;100.00;100277.19;4836580;28;20036;-59
2022/10/16 11:56:43;;;;;;;36.28;20.20;;;;;;;11.03;100.00;100270.13;4895239;28;20059;-58
2022/10/16 11:59:37;;;;;;;36.10;19.60;;;;;;;11.02;100.00;100265.81;4892000;28;20045;-59
2022/10/16 12:02:44;;;;;;;36.72;19.55;;;;;;;11.02;100.00;100276.28;4889130;28;20053;-59
2022/10/16 12:05:38;;;;;;;31.23;18.08;;;;;;;11.01;100.00;100277.19;4884102;28;20045;-58
2022/10/16 12:08:19;;;;;;;32.80;18.20;;;;;;;10.98;100.00;100266.75;4900897;28;20049;-59
2022/10/16 12:10:57;;;;;;;34.85;18.60;;;;;;;10.90;100.00;100237.28;4883128;28;20375;-59
2022/10/16 12:13:36;;;;;;;36.85;19.35;;;;;;;11.05;100.00;100268.38;4908052;28;20045;-59
2022/10/16 12:16:23;;;;;;;31.77;19.52;;;;;;;10.93;100.00;100234.59;4879005;28;20049;-59
2022/10/16 12:19:18;;;;;;;37.13;19.15;;;;;;;11.04;100.00;100264.03;4896266;28;20064;-58
2022/10/16 12:22:03;;;;;;;37.65;19.25;;;;;;;10.79;100.00;100225.25;4912472;28;20062;-59
2022/10/16 12:27:39;;;;;;;39.45;19.85;;;;;;;10.78;100.00;100218.31;4892968;28;20314;-59
2022/10/16 12:30:26;;;;;;;40.88;19.83;;;;;;;10.92;100.00;100225.91;4903442;28;20603;-59
2022/10/16 12:33:07;;;;;;;41.90;20.83;;;;;;;10.97;100.00;100223.19;4883767;28;20109;-59
2022/10/16 12:35:52;;;;;;;41.30;19.83;;;;;;;11.02;100.00;100231.81;4915765;28;20057;-59
2022/10/16 12:42:21;;;;;;;42.17;21.00;;;;;;;11.03;100.00;100225.69;4908097;28;20049;-59
2022/10/16 12:45:00;;;;;;;49.67;22.10;;;;;;;11.03;100.00;100228.31;4941749;28;20048;-59
2022/10/16 12:47:53;;;;;;;41.13;20.13;;;;;;;11.03;100.00;100228.31;4934539;28;20049;-60
2022/10/16 12:50:43;;;;;;;37.45;19.85;;;;;;;11.01;100.00;100215.28;4917855;28;20045;-60
2022/10/16 12:53:41;;;;;;;39.47;19.63;;;;;;;11.04;100.00;100214.34;4918829;28;20444;-59
2022/10/16 12:56:28;;;;;;;39.13;19.65;;;;;;;10.98;100.00;100194.44;4928000;28;20422;-59
2022/10/16 12:59:28;;;;;;;43.97;19.23;;;;;;;11.05;100.00;100205.59;4925519;28;20053;-59
2022/10/16 13:02:58;;;;;;;40.90;19.02;;;;;;;11.04;100.00;100187.34;4921679;28;20052;-59
2022/10/16 13:06:10;;;;;;;40.20;19.33;;;;;;;10.96;100.00;100190.13;4889377;28;20048;-59
2022/10/16 13:09:08;;;;;;;34.90;17.35;;;;;;;10.95;100.00;100172.69;4855015;28;20330;-58
2022/10/16 13:12:16;;;;;;;36.38;18.10;;;;;;;11.00;100.00;100160.38;4898586;28;20052;-59
2022/10/16 13:15:13;;;;;;;40.53;17.35;;;;;;;10.78;100.00;100123.34;4901331;28;20040;-59
2022/10/16 13:18:08;;;;;;;33.63;17.23;;;;;;;11.00;100.00;100150.78;4902914;28;20041;-59
2022/10/16 13:21:00;;;;;;;35.58;18.13;;;;;;;10.57;100.00;100088.91;4914526;28;20061;-60
2022/10/16 13:23:55;;;;;;;37.80;18.98;;;;;;;11.04;100.00;100172.53;4947447;28;20056;-59
2022/10/16 13:26:55;;;;;;;41.33;18.65;;;;;;;11.04;100.00;100156.84;4914367;28;20153;-60
2022/10/16 13:29:41;;;;;;;36.03;18.13;;;;;;;11.04;100.00;100154.22;4903332;28;20091;-59
2022/10/16 13:32:28;;;;;;;37.85;19.85;;;;;;;11.03;100.00;100152.47;4899513;28;20108;-59
2022/10/16 13:35:08;;;;;;;42.72;19.83;;;;;;;10.94;100.00;100134.38;4909846;28;20049;-59
2022/10/16 13:37:51;;;;;;;49.55;20.40;;;;;;;11.04;100.00;100141.16;4873549;28;20032;-59
2022/10/16 13:40:43;;;;;;;38.33;19.70;;;;;;;11.04;100.00;100132.44;4923707;28;20053;-58